createdAt,value
2023-04-15T00:00:09.934Z,8.17
2023-04-15T00:01:09.946Z,8.26
2023-04-15T00:02:10.037Z,8.20
2023-04-15T00:03:10.225Z,8.14
2023-04-15T00:04:10.002Z,8.24
2023-04-15T00:05:09.984Z,8.20
2023-04-15T00:06:09.996Z,8.20
2023-04-15T00:07:10.017Z,8.11
2023-04-15T00:08:10.031Z,8.13
2023-04-15T00:09:10.031Z,8.18
2023-04-15T00:10:10.053Z,8.20
2023-04-15T00:11:10.069Z,8.20
2023-04-15T00:12:10.082Z,8.21
2023-04-15T00:13:10.085Z,8.21
2023-04-15T00:14:10.099Z,8.24
2023-04-15T00:15:10.110Z,8.20
2023-04-15T00:16:10.217Z,8.23
2023-04-15T00:17:10.137Z,8.17
2023-04-15T00:18:10.158Z,8.23
2023-04-15T00:19:10.161Z,8.24
2023-04-15T00:20:10.171Z,8.31
2023-04-15T00:21:10.185Z,8.28
2023-04-15T00:22:10.193Z,8.27
2023-04-15T00:23:10.218Z,8.18
2023-04-15T00:24:10.222Z,8.24
2023-04-15T00:25:10.245Z,8.20
2023-04-15T00:26:10.259Z,8.23
2023-04-15T00:27:10.260Z,8.20
2023-04-15T00:28:10.274Z,8.27
2023-04-15T00:29:10.291Z,8.17
2023-04-15T00:30:10.298Z,8.23
2023-04-15T00:31:10.376Z,8.21
2023-04-15T00:32:10.329Z,8.27
2023-04-15T00:33:10.336Z,8.18
2023-04-15T00:34:10.349Z,8.21
2023-04-15T00:35:10.361Z,8.17
2023-04-15T00:36:10.374Z,8.24
2023-04-15T00:37:10.384Z,8.21
2023-04-15T00:38:10.411Z,8.26
2023-04-15T00:39:10.414Z,8.26
2023-04-15T00:40:10.424Z,8.26
2023-04-15T00:41:10.452Z,8.23
2023-04-15T00:42:10.452Z,8.26
2023-04-15T00:43:10.459Z,8.27
2023-04-15T00:44:10.479Z,8.16
2023-04-15T00:45:10.486Z,8.26
2023-04-15T00:46:10.528Z,8.21
2023-04-15T00:47:10.517Z,8.26
2023-04-15T00:48:10.526Z,8.20
2023-04-15T00:49:10.537Z,8.21
2023-04-15T00:50:10.554Z,8.18
2023-04-15T00:51:10.580Z,8.20
2023-04-15T00:52:10.590Z,8.21
2023-04-15T00:53:10.588Z,8.26
2023-04-15T00:54:10.602Z,8.26
2023-04-15T00:55:10.613Z,8.27
2023-04-15T00:56:10.630Z,8.23
2023-04-15T00:57:10.640Z,8.23
2023-04-15T00:58:10.652Z,8.21
2023-04-15T00:59:10.667Z,8.23
2023-04-15T01:00:10.732Z,8.23
2023-04-15T01:01:10.730Z,8.26
2023-04-15T01:02:10.821Z,8.23
2023-04-15T01:03:10.830Z,8.24
2023-04-15T01:04:10.768Z,8.28
2023-04-15T01:05:10.745Z,8.32
2023-04-15T01:06:10.753Z,8.21
2023-04-15T01:07:10.771Z,8.24
2023-04-15T01:08:10.779Z,8.13
2023-04-15T01:09:10.791Z,8.21
2023-04-15T01:10:10.809Z,8.27
2023-04-15T01:11:10.818Z,8.24
2023-04-15T01:12:10.829Z,8.18
2023-04-15T01:13:10.841Z,8.27
2023-04-15T01:14:10.869Z,8.21
2023-04-15T01:15:10.866Z,8.21
2023-04-15T01:16:10.919Z,8.27
2023-04-15T01:17:10.901Z,8.21
2023-04-15T01:18:10.905Z,8.18
2023-04-15T01:19:10.931Z,8.23
2023-04-15T01:20:10.934Z,8.24
2023-04-15T01:21:10.942Z,8.21
2023-04-15T01:22:10.956Z,8.21
2023-04-15T01:23:10.973Z,8.23
2023-04-15T01:24:10.983Z,8.24
2023-04-15T01:25:10.994Z,8.24
2023-04-15T01:26:11.017Z,8.26
2023-04-15T01:27:11.020Z,8.24
2023-04-15T01:28:11.037Z,8.21
2023-04-15T01:29:11.048Z,8.27
2023-04-15T01:30:11.056Z,8.27
2023-04-15T01:31:11.169Z,8.24
2023-04-15T01:32:11.086Z,8.31
2023-04-15T01:33:11.094Z,8.31
2023-04-15T01:34:11.117Z,8.21
2023-04-15T01:35:11.126Z,8.34
2023-04-15T01:36:11.145Z,8.24
2023-04-15T01:37:11.145Z,8.23
2023-04-15T01:38:11.165Z,8.18
2023-04-15T01:39:11.171Z,8.27
2023-04-15T01:40:11.189Z,8.17
2023-04-15T01:41:11.199Z,8.24
2023-04-15T01:42:11.218Z,8.23
2023-04-15T01:43:11.231Z,8.26
2023-04-15T01:44:11.245Z,8.21
2023-04-15T01:45:11.249Z,8.23
2023-04-15T01:46:11.337Z,8.24
2023-04-15T01:47:11.277Z,8.18
2023-04-15T01:48:11.289Z,8.17
2023-04-15T01:49:11.304Z,8.20
2023-04-15T01:50:11.371Z,8.23
2023-04-15T01:51:11.328Z,8.18
2023-04-15T01:52:11.342Z,8.21
2023-04-15T01:53:11.353Z,8.14
2023-04-15T01:54:11.365Z,8.23
2023-04-15T01:55:11.378Z,8.23
2023-04-15T01:56:11.390Z,8.16
2023-04-15T01:57:11.403Z,8.14
2023-04-15T01:58:11.417Z,8.16
2023-04-15T01:59:11.432Z,8.23
2023-04-15T02:00:11.440Z,8.21
2023-04-15T02:01:11.543Z,8.20
2023-04-15T02:02:11.506Z,8.23
2023-04-15T02:03:11.507Z,8.23
2023-04-15T02:04:11.577Z,8.20
2023-04-15T02:05:11.504Z,8.20
2023-04-15T02:06:11.537Z,8.21
2023-04-15T02:07:11.559Z,8.21
2023-04-15T02:08:11.551Z,8.18
2023-04-15T02:09:11.559Z,8.24
2023-04-15T02:10:11.567Z,8.21
2023-04-15T02:11:11.584Z,8.23
2023-04-15T02:12:11.602Z,8.18
2023-04-15T02:13:11.622Z,8.23
2023-04-15T02:14:11.621Z,8.17
2023-04-15T02:15:11.636Z,8.23
2023-04-15T02:16:11.681Z,8.23
2023-04-15T02:17:11.655Z,8.21
2023-04-15T02:18:11.676Z,8.20
2023-04-15T02:19:11.682Z,8.23
2023-04-15T02:20:11.694Z,8.23
2023-04-15T02:21:11.714Z,8.17
2023-04-15T02:22:11.730Z,8.27
2023-04-15T02:23:11.749Z,8.23
2023-04-15T02:24:11.745Z,8.14
2023-04-15T02:25:11.757Z,8.23
2023-04-15T02:26:11.775Z,8.23
2023-04-15T02:27:11.788Z,8.27
2023-04-15T02:28:11.793Z,8.23
2023-04-15T02:29:11.808Z,8.20
2023-04-15T02:30:11.821Z,8.20
2023-04-15T02:31:11.835Z,8.18
2023-04-15T02:32:11.937Z,8.18
2023-04-15T02:33:11.858Z,8.23
2023-04-15T02:34:11.872Z,8.23
2023-04-15T02:35:11.889Z,8.23
2023-04-15T02:36:11.901Z,8.21
2023-04-15T02:37:11.915Z,8.21
2023-04-15T02:38:11.924Z,8.20
2023-04-15T02:39:11.939Z,8.23
2023-04-15T02:40:11.953Z,8.20
2023-04-15T02:41:11.961Z,8.21
2023-04-15T02:42:11.976Z,8.23
2023-04-15T02:43:11.985Z,8.21
2023-04-15T02:44:12.005Z,8.17
2023-04-15T02:45:12.022Z,8.13
2023-04-15T02:46:12.120Z,8.20
2023-04-15T02:47:12.033Z,8.26
2023-04-15T02:48:12.052Z,8.18
2023-04-15T02:49:12.064Z,8.13
2023-04-15T02:50:12.078Z,8.23
2023-04-15T02:51:12.090Z,8.23
2023-04-15T02:52:12.109Z,8.26
2023-04-15T02:53:12.111Z,8.21
2023-04-15T02:54:12.123Z,8.20
2023-04-15T02:55:12.156Z,8.16
2023-04-15T02:56:12.152Z,8.23
2023-04-15T02:57:12.171Z,8.20
2023-04-15T02:58:12.173Z,8.23
2023-04-15T02:59:12.191Z,8.18
2023-04-15T03:00:12.276Z,8.24
2023-04-15T03:01:12.290Z,8.20
2023-04-15T03:02:12.339Z,8.27
2023-04-15T03:03:12.500Z,8.21
2023-04-15T03:04:12.385Z,8.23
2023-04-15T03:05:12.262Z,8.23
2023-04-15T03:06:12.271Z,8.28
2023-04-15T03:07:12.286Z,8.28
2023-04-15T03:08:12.301Z,8.27
2023-04-15T03:09:12.311Z,8.26
2023-04-15T03:10:12.326Z,8.27
2023-04-15T03:11:12.337Z,8.28
2023-04-15T03:12:12.350Z,8.28
2023-04-15T03:13:12.360Z,8.27
2023-04-15T03:14:12.377Z,8.27
2023-04-15T03:15:12.391Z,8.28
2023-04-15T03:16:12.437Z,8.23
2023-04-15T03:17:12.416Z,8.26
2023-04-15T03:18:12.430Z,8.24
2023-04-15T03:19:12.438Z,8.31
2023-04-15T03:20:12.475Z,8.31
2023-04-15T03:21:12.464Z,8.26
2023-04-15T03:22:12.479Z,8.27
2023-04-15T03:23:12.491Z,8.28
2023-04-15T03:24:12.506Z,8.23
2023-04-15T03:25:12.517Z,8.36
2023-04-15T03:26:12.532Z,8.31
2023-04-15T03:27:12.539Z,8.28
2023-04-15T03:28:12.564Z,8.28
2023-04-15T03:29:12.571Z,8.39
2023-04-15T03:30:12.584Z,8.42
2023-04-15T03:31:12.637Z,8.38
2023-04-15T03:32:12.608Z,8.42
2023-04-15T03:33:12.621Z,8.39
2023-04-15T03:34:12.635Z,8.39
2023-04-15T03:35:12.646Z,8.36
2023-04-15T03:36:12.660Z,8.42
2023-04-15T03:37:12.674Z,8.44
2023-04-15T03:38:12.685Z,8.38
2023-04-15T03:39:12.699Z,8.41
2023-04-15T03:40:12.714Z,8.38
2023-04-15T03:41:12.728Z,8.35
2023-04-15T03:42:12.736Z,8.38
2023-04-15T03:43:12.750Z,8.38
2023-04-15T03:44:12.765Z,8.39
2023-04-15T03:45:12.776Z,8.38
2023-04-15T03:46:12.841Z,8.41
2023-04-15T03:47:12.801Z,8.36
2023-04-15T03:48:17.914Z,8.41
2023-04-15T03:49:12.834Z,8.41
2023-04-15T03:50:12.837Z,8.46
2023-04-15T03:51:12.857Z,8.35
2023-04-15T03:52:12.868Z,8.38
2023-04-15T03:53:12.900Z,8.44
2023-04-15T03:54:12.898Z,8.50
2023-04-15T03:55:12.905Z,8.46
2023-04-15T03:56:12.934Z,8.52
2023-04-15T03:57:12.948Z,8.52
2023-04-15T03:58:13.026Z,8.50
2023-04-15T03:59:12.959Z,8.38
2023-04-15T04:00:13.010Z,8.49
2023-04-15T04:01:12.988Z,8.50
2023-04-15T04:02:13.062Z,8.46
2023-04-15T04:03:13.112Z,8.42
2023-04-15T04:04:13.230Z,8.50
2023-04-15T04:05:13.054Z,8.39
2023-04-15T04:06:13.052Z,8.49
2023-04-15T04:07:13.064Z,8.41
2023-04-15T04:08:13.075Z,8.60
2023-04-15T04:09:13.088Z,8.50
2023-04-15T04:10:13.100Z,8.54
2023-04-15T04:11:13.115Z,8.50
2023-04-15T04:12:13.129Z,8.57
2023-04-15T04:13:13.143Z,8.57
2023-04-15T04:14:13.156Z,8.45
2023-04-15T04:15:13.168Z,8.52
2023-04-15T04:16:13.352Z,8.56
2023-04-15T04:17:13.325Z,8.53
2023-04-15T04:18:13.211Z,8.56
2023-04-15T04:19:13.221Z,8.53
2023-04-15T04:20:13.239Z,8.54
2023-04-15T04:21:13.245Z,8.59
2023-04-15T04:22:13.262Z,8.59
2023-04-15T04:23:13.272Z,8.54
2023-04-15T04:24:13.285Z,8.63
2023-04-15T04:25:13.298Z,8.49
2023-04-15T04:26:13.361Z,8.56
2023-04-15T04:27:13.325Z,8.60
2023-04-15T04:28:13.346Z,8.61
2023-04-15T04:29:13.355Z,8.54
2023-04-15T04:30:13.364Z,8.56
2023-04-15T04:31:13.378Z,8.61
2023-04-15T04:32:13.427Z,8.52
2023-04-15T04:33:13.407Z,8.46
2023-04-15T04:34:13.440Z,8.53
2023-04-15T04:35:13.446Z,8.59
2023-04-15T04:36:13.452Z,8.50
2023-04-15T04:37:13.454Z,8.57
2023-04-15T04:38:13.472Z,8.60
2023-04-15T04:39:13.486Z,8.60
2023-04-15T04:40:13.509Z,8.57
2023-04-15T04:41:13.517Z,8.57
2023-04-15T04:42:13.527Z,8.57
2023-04-15T04:43:13.536Z,8.63
2023-04-15T04:44:13.551Z,8.66
2023-04-15T04:45:13.564Z,8.59
2023-04-15T04:46:13.638Z,8.64
2023-04-15T04:47:13.590Z,8.63
2023-04-15T04:48:13.602Z,8.68
2023-04-15T04:49:13.614Z,8.74
2023-04-15T04:50:13.628Z,8.68
2023-04-15T04:51:13.643Z,8.71
2023-04-15T04:52:13.681Z,8.71
2023-04-15T04:53:13.672Z,8.64
2023-04-15T04:54:13.696Z,8.74
2023-04-15T04:55:13.691Z,8.69
2023-04-15T04:56:13.707Z,8.74
2023-04-15T04:57:13.744Z,8.71
2023-04-15T04:58:13.745Z,8.68
2023-04-15T04:59:13.750Z,8.75
2023-04-15T05:00:13.763Z,8.78
2023-04-15T05:01:13.849Z,8.77
2023-04-15T05:02:13.878Z,8.72
2023-04-15T05:03:13.943Z,8.79
2023-04-15T05:04:13.883Z,8.75
2023-04-15T05:05:13.833Z,8.79
2023-04-15T05:06:13.862Z,8.77
2023-04-15T05:07:13.860Z,8.78
2023-04-15T05:08:13.871Z,8.81
2023-04-15T05:09:13.894Z,8.84
2023-04-15T05:10:13.899Z,8.81
2023-04-15T05:11:13.922Z,8.84
2023-04-15T05:12:13.929Z,8.81
2023-04-15T05:13:13.939Z,8.78
2023-04-15T05:14:13.952Z,8.90
2023-04-15T05:15:13.981Z,8.87
2023-04-15T05:16:14.009Z,8.87
2023-04-15T05:17:13.992Z,8.84
2023-04-15T05:18:14.008Z,8.84
2023-04-15T05:19:14.023Z,8.81
2023-04-15T05:20:14.047Z,8.87
2023-04-15T05:21:14.050Z,8.90
2023-04-15T05:22:14.067Z,8.87
2023-04-15T05:23:14.078Z,8.87
2023-04-15T05:24:14.091Z,8.93
2023-04-15T05:25:14.111Z,8.89
2023-04-15T05:26:14.122Z,8.89
2023-04-15T05:27:14.138Z,8.89
2023-04-15T05:28:14.145Z,8.89
2023-04-15T05:29:14.164Z,8.84
2023-04-15T05:30:14.175Z,8.84
2023-04-15T05:31:14.239Z,8.92
2023-04-15T05:32:14.200Z,8.84
2023-04-15T05:33:14.213Z,8.92
2023-04-15T05:34:14.226Z,8.92
2023-04-15T05:35:14.240Z,8.92
2023-04-15T05:36:14.260Z,8.99
2023-04-15T05:37:14.268Z,8.90
2023-04-15T05:38:14.282Z,8.99
2023-04-15T05:39:14.310Z,8.95
2023-04-15T05:40:14.309Z,8.96
2023-04-15T05:41:14.328Z,8.90
2023-04-15T05:42:14.341Z,8.96
2023-04-15T05:43:14.348Z,8.95
2023-04-15T05:44:14.376Z,8.96
2023-04-15T05:45:14.383Z,9.02
2023-04-15T05:46:14.409Z,8.95
2023-04-15T05:47:14.402Z,9.02
2023-04-15T05:48:14.431Z,9.02
2023-04-15T05:49:14.442Z,9.05
2023-04-15T05:50:14.445Z,9.11
2023-04-15T05:51:14.460Z,9.05
2023-04-15T05:52:14.479Z,9.08
2023-04-15T05:53:14.489Z,9.12
2023-04-15T05:54:14.511Z,9.08
2023-04-15T05:55:14.519Z,9.18
2023-04-15T05:56:14.531Z,9.15
2023-04-15T05:57:14.547Z,9.15
2023-04-15T05:58:14.557Z,9.15
2023-04-15T05:59:14.579Z,9.15
2023-04-15T06:00:14.586Z,9.16
2023-04-15T06:01:14.605Z,9.22
2023-04-15T06:02:14.644Z,9.27
2023-04-15T06:03:14.664Z,9.24
2023-04-15T06:04:14.707Z,9.26
2023-04-15T06:05:14.661Z,9.33
2023-04-15T06:06:14.671Z,9.37
2023-04-15T06:07:14.702Z,9.40
2023-04-15T06:08:14.728Z,9.37
2023-04-15T06:09:14.719Z,9.45
2023-04-15T06:10:14.729Z,9.49
2023-04-15T06:11:14.746Z,9.51
2023-04-15T06:12:14.760Z,9.40
2023-04-15T06:13:14.772Z,9.52
2023-04-15T06:14:14.790Z,9.62
2023-04-15T06:15:14.807Z,9.56
2023-04-15T06:16:14.862Z,9.62
2023-04-15T06:17:14.827Z,9.63
2023-04-15T06:18:14.846Z,9.64
2023-04-15T06:20:14.877Z,9.63
2023-04-15T06:21:14.890Z,9.67
2023-04-15T06:22:14.903Z,9.63
2023-04-15T06:23:14.918Z,9.70
2023-04-15T06:24:14.933Z,9.74
2023-04-15T06:25:14.951Z,9.69
2023-04-15T06:26:14.963Z,9.69
2023-04-15T06:27:14.981Z,9.72
2023-04-15T06:28:14.995Z,9.76
2023-04-15T06:29:15.007Z,9.67
2023-04-15T06:30:15.023Z,9.73
2023-04-15T06:31:15.050Z,9.76
2023-04-15T06:32:15.053Z,9.74
2023-04-15T06:33:15.071Z,9.73
2023-04-15T06:34:15.078Z,9.72
2023-04-15T06:35:15.093Z,9.76
2023-04-15T06:36:15.109Z,9.76
2023-04-15T06:37:15.124Z,9.76
2023-04-15T06:38:15.138Z,9.73
2023-04-15T06:39:15.152Z,9.76
2023-04-15T06:40:15.166Z,9.74
2023-04-15T06:41:15.194Z,9.84
2023-04-15T06:42:15.204Z,9.85
2023-04-15T06:43:15.232Z,9.88
2023-04-15T06:44:15.225Z,9.84
2023-04-15T06:45:15.245Z,9.88
2023-04-15T06:46:15.338Z,9.91
2023-04-15T06:47:15.268Z,9.92
2023-04-15T06:48:15.285Z,10.00
2023-04-15T06:49:15.307Z,10.02
2023-04-15T06:50:15.321Z,10.02
2023-04-15T06:51:15.354Z,9.95
2023-04-15T06:52:15.362Z,10.06
2023-04-15T06:53:15.360Z,10.10
2023-04-15T06:54:15.402Z,10.09
2023-04-15T06:55:15.398Z,10.15
2023-04-15T06:56:15.417Z,10.06
2023-04-15T06:57:15.427Z,10.06
2023-04-15T06:58:15.447Z,10.24
2023-04-15T06:59:15.458Z,10.33
2023-04-15T07:00:15.464Z,10.31
2023-04-15T07:01:15.527Z,10.30
2023-04-15T07:02:15.538Z,10.33
2023-04-15T07:03:15.567Z,10.41
2023-04-15T07:04:15.552Z,10.33
2023-04-15T07:05:15.554Z,10.41
2023-04-15T07:06:15.560Z,10.48
2023-04-15T07:07:15.573Z,10.51
2023-04-15T07:08:15.591Z,10.49
2023-04-15T07:09:15.607Z,10.53
2023-04-15T07:10:15.624Z,10.48
2023-04-15T07:11:15.643Z,10.67
2023-04-15T07:12:15.657Z,10.65
2023-04-15T07:13:15.673Z,10.68
2023-04-15T07:14:15.689Z,10.64
2023-04-15T07:15:15.712Z,10.65
2023-04-15T07:16:15.737Z,10.67
2023-04-15T07:17:15.737Z,10.64
2023-04-15T07:18:15.753Z,10.68
2023-04-15T07:19:15.769Z,10.75
2023-04-15T07:20:15.786Z,10.71
2023-04-15T07:21:15.800Z,10.80
2023-04-15T07:22:15.816Z,10.82
2023-04-15T07:23:15.836Z,10.87
2023-04-15T07:24:15.851Z,10.84
2023-04-15T07:25:15.866Z,10.76
2023-04-15T07:26:15.881Z,10.86
2023-04-15T07:27:15.911Z,10.92
2023-04-15T07:28:15.919Z,10.97
2023-04-15T07:29:15.930Z,11.00
2023-04-15T07:30:15.955Z,10.94
2023-04-15T07:31:16.002Z,10.94
2023-04-15T07:32:15.980Z,10.92
2023-04-15T07:33:15.998Z,10.90
2023-04-15T07:34:16.012Z,10.89
2023-04-15T07:35:16.030Z,10.86
2023-04-15T07:36:16.046Z,10.79
2023-04-15T07:37:16.057Z,10.84
2023-04-15T07:38:16.079Z,10.82
2023-04-15T07:39:16.099Z,10.69
2023-04-15T07:40:16.115Z,10.79
2023-04-15T07:41:16.125Z,10.72
2023-04-15T07:42:16.143Z,10.69
2023-04-15T07:43:16.162Z,10.64
2023-04-15T07:44:16.176Z,10.65
2023-04-15T07:45:16.193Z,10.68
2023-04-15T07:46:16.281Z,10.62
2023-04-15T07:47:16.234Z,10.59
2023-04-15T07:48:16.240Z,10.57
2023-04-15T07:49:16.255Z,10.49
2023-04-15T07:50:16.271Z,10.41
2023-04-15T07:51:16.288Z,10.43
2023-04-15T07:52:16.299Z,10.30
2023-04-15T07:53:16.324Z,10.34
2023-04-15T07:54:16.331Z,10.39
2023-04-15T07:55:16.358Z,10.33
2023-04-15T07:56:16.365Z,10.36
2023-04-15T07:57:16.377Z,10.38
2023-04-15T07:58:16.392Z,10.38
2023-04-15T07:59:16.409Z,10.39
2023-04-15T08:00:16.446Z,10.38
2023-04-15T08:01:16.440Z,10.42
2023-04-15T08:02:16.603Z,10.38
2023-04-15T08:03:16.628Z,10.34
2023-04-15T08:04:16.658Z,10.38
2023-04-15T08:05:16.586Z,10.41
2023-04-15T08:06:16.519Z,10.39
2023-04-15T08:07:16.529Z,10.27
2023-04-15T08:08:16.555Z,10.34
2023-04-15T08:09:16.564Z,10.25
2023-04-15T08:10:16.587Z,10.33
2023-04-15T08:11:16.600Z,10.31
2023-04-15T08:12:16.610Z,10.25
2023-04-15T08:13:16.632Z,10.25
2023-04-15T08:14:16.635Z,10.21
2023-04-15T08:15:16.654Z,10.20
2023-04-15T08:16:16.706Z,10.23
2023-04-15T08:17:16.696Z,10.17
2023-04-15T08:18:16.695Z,10.24
2023-04-15T08:19:16.714Z,10.21
2023-04-15T08:20:16.729Z,10.21
2023-04-15T08:21:16.743Z,10.18
2023-04-15T08:22:18.511Z,10.24
2023-04-15T08:23:16.772Z,10.15
2023-04-15T08:24:16.788Z,10.25
2023-04-15T08:25:16.804Z,10.21
2023-04-15T08:26:16.812Z,10.13
2023-04-15T08:27:16.929Z,10.24
2023-04-15T08:28:16.843Z,10.23
2023-04-15T08:29:16.860Z,10.25
2023-04-15T08:30:16.873Z,10.25
2023-04-15T08:31:16.923Z,10.25
2023-04-15T08:32:17.010Z,10.24
2023-04-15T08:33:16.919Z,10.23
2023-04-15T08:34:16.932Z,10.24
2023-04-15T08:35:16.948Z,10.23
2023-04-15T08:36:16.971Z,10.21
2023-04-15T08:37:16.975Z,10.25
2023-04-15T08:38:16.990Z,10.28
2023-04-15T08:39:17.011Z,10.27
2023-04-15T08:40:17.039Z,10.31
2023-04-15T08:41:17.035Z,10.23
2023-04-15T08:42:17.051Z,10.31
2023-04-15T08:43:17.066Z,10.24
2023-04-15T08:44:17.083Z,10.20
2023-04-15T08:45:17.097Z,10.23
2023-04-15T08:46:17.132Z,10.24
2023-04-15T08:47:17.127Z,10.18
2023-04-15T08:48:17.151Z,10.27
2023-04-15T08:49:17.156Z,10.23
2023-04-15T08:50:17.171Z,10.18
2023-04-15T08:51:17.190Z,10.17
2023-04-15T08:52:17.204Z,10.23
2023-04-15T08:53:17.218Z,10.23
2023-04-15T08:54:17.234Z,10.28
2023-04-15T08:55:17.252Z,10.27
2023-04-15T08:56:17.295Z,10.27
2023-04-15T08:57:17.283Z,10.23
2023-04-15T08:58:17.305Z,10.25
2023-04-15T08:59:17.319Z,10.33
2023-04-15T09:00:17.350Z,10.30
2023-04-15T09:01:17.372Z,10.33
2023-04-15T09:02:17.459Z,10.36
2023-04-15T09:03:17.551Z,10.41
2023-04-15T09:04:17.401Z,10.34
2023-04-15T09:05:17.397Z,10.36
2023-04-15T09:06:17.437Z,10.34
2023-04-15T09:07:17.443Z,10.28
2023-04-15T09:08:17.519Z,10.23
2023-04-15T09:09:17.460Z,10.33
2023-04-15T09:10:17.487Z,10.28
2023-04-15T09:11:19.470Z,10.25
2023-04-15T09:12:17.512Z,10.25
2023-04-15T09:13:17.519Z,10.25
2023-04-15T09:14:17.536Z,10.24
2023-04-15T09:15:17.549Z,10.25
2023-04-15T09:16:17.625Z,10.27
2023-04-15T09:17:17.578Z,10.30
2023-04-15T09:18:17.593Z,10.30
2023-04-15T09:19:17.605Z,10.31
2023-04-15T09:20:17.668Z,10.33
2023-04-15T09:21:17.656Z,10.28
2023-04-15T09:22:17.655Z,10.30
2023-04-15T09:23:17.669Z,10.31
2023-04-15T09:24:17.692Z,10.31
2023-04-15T09:25:17.694Z,10.31
2023-04-15T09:26:17.710Z,10.39
2023-04-15T09:27:17.729Z,10.34
2023-04-15T09:28:17.741Z,10.41
2023-04-15T09:29:17.753Z,10.41
2023-04-15T09:30:17.822Z,10.43
2023-04-15T09:31:17.839Z,10.39
2023-04-15T09:32:17.804Z,10.49
2023-04-15T09:33:17.815Z,10.45
2023-04-15T09:34:17.828Z,10.49
2023-04-15T09:35:17.843Z,10.43
2023-04-15T09:36:17.860Z,10.49
2023-04-15T09:37:29.071Z,10.41
2023-04-15T09:38:17.890Z,10.43
2023-04-15T09:39:17.917Z,10.46
2023-04-15T09:40:17.923Z,10.51
2023-04-15T09:41:17.941Z,10.51
2023-04-15T09:42:17.951Z,10.55
2023-04-15T09:43:17.969Z,10.49
2023-04-15T09:44:17.984Z,10.53
2023-04-15T09:45:18.013Z,10.51
2023-04-15T09:46:18.041Z,10.49
2023-04-15T09:47:18.028Z,10.48
2023-04-15T09:48:18.069Z,10.43
2023-04-15T09:49:18.107Z,10.45
2023-04-15T09:50:18.072Z,10.43
2023-04-15T09:51:18.087Z,10.49
2023-04-15T09:52:18.105Z,10.42
2023-04-15T09:53:18.128Z,10.42
2023-04-15T09:54:18.136Z,10.48
2023-04-15T09:55:18.152Z,10.42
2023-04-15T09:56:18.171Z,10.39
2023-04-15T09:57:18.180Z,10.43
2023-04-15T09:58:18.198Z,10.45
2023-04-15T09:59:19.551Z,10.46
2023-04-15T10:00:18.226Z,10.36
2023-04-15T10:01:18.295Z,10.38
2023-04-15T10:02:18.343Z,10.45
2023-04-15T10:03:18.416Z,10.38
2023-04-15T10:04:18.462Z,10.36
2023-04-15T10:05:18.322Z,10.45
2023-04-15T10:06:18.314Z,10.33
2023-04-15T10:07:18.332Z,10.34
2023-04-15T10:08:18.348Z,10.36
2023-04-15T10:09:18.366Z,10.41
2023-04-15T10:10:18.380Z,10.39
2023-04-15T10:11:18.396Z,10.41
2023-04-15T10:12:18.406Z,10.45
2023-04-15T10:13:18.425Z,10.46
2023-04-15T10:14:18.436Z,10.38
2023-04-15T10:15:18.459Z,10.28
2023-04-15T10:16:18.495Z,10.34
2023-04-15T10:17:18.495Z,10.33
2023-04-15T10:18:18.500Z,10.36
2023-04-15T10:19:18.508Z,10.38
2023-04-15T10:20:18.526Z,10.28
2023-04-15T10:21:18.599Z,10.39
2023-04-15T10:22:18.555Z,10.36
2023-04-15T10:23:18.569Z,10.30
2023-04-15T10:24:18.586Z,10.31
2023-04-15T10:25:18.603Z,10.38
2023-04-15T10:26:18.615Z,10.34
2023-04-15T10:27:18.638Z,10.36
2023-04-15T10:28:18.645Z,10.31
2023-04-15T10:29:18.664Z,10.36
2023-04-15T10:30:18.692Z,10.36
2023-04-15T10:31:18.713Z,10.31
2023-04-15T10:32:18.731Z,10.28
2023-04-15T10:33:18.715Z,10.33
2023-04-15T10:34:18.732Z,10.34
2023-04-15T10:35:18.746Z,10.34
2023-04-15T10:36:18.763Z,10.28
2023-04-15T10:37:18.777Z,10.33
2023-04-15T10:38:18.791Z,10.28
2023-04-15T10:39:18.810Z,10.36
2023-04-15T10:40:18.820Z,10.25
2023-04-15T10:41:20.216Z,10.30
2023-04-15T10:42:18.849Z,10.43
2023-04-15T10:43:18.870Z,10.45
2023-04-15T10:44:18.882Z,10.41
2023-04-15T10:45:18.895Z,10.46
2023-04-15T10:46:18.927Z,10.55
2023-04-15T10:47:18.919Z,10.51
2023-04-15T10:48:18.941Z,10.51
2023-04-15T10:49:18.954Z,10.55
2023-04-15T10:50:18.980Z,10.61
2023-04-15T10:51:18.983Z,10.69
2023-04-15T10:52:18.999Z,10.64
2023-04-15T10:53:20.265Z,10.57
2023-04-15T10:54:19.028Z,10.59
2023-04-15T10:55:19.045Z,10.72
2023-04-15T10:56:19.062Z,10.67
2023-04-15T10:57:19.074Z,10.65
2023-04-15T10:58:19.087Z,10.65
2023-04-15T10:59:19.964Z,10.67
2023-04-15T11:00:19.121Z,10.65
2023-04-15T11:01:19.188Z,10.72
2023-04-15T11:02:19.279Z,10.67
2023-04-15T11:03:19.294Z,10.67
2023-04-15T11:04:19.274Z,10.67
2023-04-15T11:05:19.206Z,10.83
2023-04-15T11:06:19.207Z,10.69
2023-04-15T11:07:19.224Z,10.69
2023-04-15T11:08:19.254Z,10.77
2023-04-15T11:09:19.274Z,10.72
2023-04-15T11:10:19.276Z,10.77
2023-04-15T11:11:19.290Z,10.79
2023-04-15T11:12:19.300Z,10.79
2023-04-15T11:13:19.310Z,10.76
2023-04-15T11:14:19.328Z,10.80
2023-04-15T11:15:19.340Z,10.75
2023-04-15T11:16:19.386Z,10.72
2023-04-15T11:17:19.373Z,10.79
2023-04-15T11:18:19.391Z,10.77
2023-04-15T11:19:19.403Z,10.77
2023-04-15T11:20:19.419Z,10.80
2023-04-15T11:21:19.433Z,10.79
2023-04-15T11:22:19.454Z,10.79
2023-04-15T11:23:19.466Z,10.79
2023-04-15T11:24:19.479Z,10.76
2023-04-15T11:25:19.499Z,10.75
2023-04-15T11:26:19.512Z,10.82
2023-04-15T11:27:19.549Z,10.75
2023-04-15T11:28:19.539Z,10.79
2023-04-15T11:29:19.558Z,10.69
2023-04-15T11:30:19.569Z,10.71
2023-04-15T11:31:19.617Z,10.64
2023-04-15T11:32:19.654Z,10.68
2023-04-15T11:33:19.619Z,10.64
2023-04-15T11:34:19.631Z,10.72
2023-04-15T11:35:19.652Z,10.77
2023-04-15T11:36:19.664Z,10.72
2023-04-15T11:37:19.676Z,10.77
2023-04-15T11:38:19.698Z,10.77
2023-04-15T11:39:19.708Z,10.67
2023-04-15T11:40:19.723Z,10.64
2023-04-15T11:41:19.733Z,10.62
2023-04-15T11:42:19.752Z,10.72
2023-04-15T11:43:19.766Z,10.61
2023-04-15T11:44:19.781Z,10.64
2023-04-15T11:45:19.798Z,10.65
2023-04-15T11:46:19.970Z,10.67
2023-04-15T11:47:19.847Z,10.71
2023-04-15T11:48:19.849Z,10.68
2023-04-15T11:49:19.852Z,10.64
2023-04-15T11:50:19.876Z,10.68
2023-04-15T11:51:19.889Z,10.67
2023-04-15T11:52:19.902Z,10.62
2023-04-15T11:53:19.919Z,10.61
2023-04-15T11:54:19.936Z,10.58
2023-04-15T11:55:19.949Z,10.62
2023-04-15T11:56:19.958Z,10.53
2023-04-15T11:57:19.972Z,10.61
2023-04-15T11:58:20.000Z,10.55
2023-04-15T11:59:20.012Z,10.51
2023-04-15T12:00:20.025Z,10.57
2023-04-15T12:01:20.033Z,10.53
2023-04-15T12:02:20.157Z,10.68
2023-04-15T12:03:20.220Z,10.65
2023-04-15T12:04:22.535Z,10.61
2023-04-15T12:05:20.164Z,10.65
2023-04-15T12:06:20.114Z,10.64
2023-04-15T12:07:20.120Z,10.71
2023-04-15T12:08:20.136Z,10.68
2023-04-15T12:09:20.213Z,10.75
2023-04-15T12:10:20.166Z,10.77
2023-04-15T12:11:20.180Z,10.76
2023-04-15T12:12:20.197Z,10.76
2023-04-15T12:13:20.210Z,10.80
2023-04-15T12:14:20.229Z,10.77
2023-04-15T12:15:20.244Z,10.83
2023-04-15T12:16:20.361Z,10.79
2023-04-15T12:17:20.321Z,10.90
2023-04-15T12:18:20.286Z,10.77
2023-04-15T12:19:20.301Z,10.80
2023-04-15T12:20:20.320Z,10.79
2023-04-15T12:21:20.336Z,10.89
2023-04-15T12:22:20.347Z,10.82
2023-04-15T12:23:20.361Z,10.82
2023-04-15T12:24:20.375Z,10.86
2023-04-15T12:25:20.394Z,10.87
2023-04-15T12:26:20.412Z,10.84
2023-04-15T12:27:20.420Z,11.08
2023-04-15T12:28:20.448Z,11.00
2023-04-15T12:29:20.452Z,10.98
2023-04-15T12:30:20.468Z,11.07
2023-04-15T12:31:20.511Z,11.00
2023-04-15T12:32:20.540Z,11.02
2023-04-15T12:33:20.515Z,11.12
2023-04-15T12:34:20.528Z,11.10
2023-04-15T12:35:20.544Z,11.16
2023-04-15T12:36:20.567Z,11.19
2023-04-15T12:37:20.589Z,11.22
2023-04-15T12:38:20.598Z,11.30
2023-04-15T12:39:20.605Z,11.31
2023-04-15T12:40:20.630Z,11.31
2023-04-15T12:41:20.643Z,11.37
2023-04-15T12:42:20.698Z,11.40
2023-04-15T12:43:20.673Z,11.41
2023-04-15T12:44:20.686Z,11.34
2023-04-15T12:45:20.706Z,11.35
2023-04-15T12:46:20.755Z,11.44
2023-04-15T12:47:20.788Z,11.40
2023-04-15T12:48:20.751Z,11.43
2023-04-15T12:49:20.768Z,11.45
2023-04-15T12:50:20.783Z,11.43
2023-04-15T12:51:20.799Z,11.51
2023-04-15T12:52:20.813Z,11.48
2023-04-15T12:53:20.834Z,11.41
2023-04-15T12:54:20.851Z,11.53
2023-04-15T12:55:20.864Z,11.44
2023-04-15T12:56:20.876Z,11.52
2023-04-15T12:57:20.892Z,11.49
2023-04-15T12:58:20.988Z,11.44
2023-04-15T12:59:20.932Z,11.52
2023-04-15T13:00:20.944Z,11.45
2023-04-15T13:01:21.002Z,11.55
2023-04-15T13:02:21.086Z,11.49
2023-04-15T13:03:21.063Z,11.53
2023-04-15T13:04:21.118Z,11.52
2023-04-15T13:05:21.018Z,11.55
2023-04-15T13:06:21.033Z,11.43